sensor_id;sensor_type;location;lat;lon;timestamp;pressure;altitude;pressure_sealevel;temperature
60731;BMP280;46580;52.114;11.674;2023-09-08T00:01:59;-19724.94;;;17.76
60731;BMP280;46580;52.114;11.674;2023-09-08T00:04:24;-19723.66;;;17.72
60731;BMP280;46580;52.114;11.674;2023-09-08T00:06:50;-19721.94;;;17.66
60731;BMP280;46580;52.114;11.674;2023-09-08T00:09:15;-19720.22;;;17.60
60731;BMP280;46580;52.114;11.674;2023-09-08T00:11:41;-19719.53;;;17.58
60731;BMP280;46580;52.114;11.674;2023-09-08T00:14:06;-19719.38;;;17.57
60731;BMP280;46580;52.114;11.674;2023-09-08T00:16:32;-19716.81;;;17.49
60731;BMP280;46580;52.114;11.674;2023-09-08T00:18:57;-19717.25;;;17.50
60731;BMP280;46580;52.114;11.674;2023-09-08T00:21:26;-19716.09;;;17.46
60731;BMP280;46580;52.114;11.674;2023-09-08T00:23:52;-19715.97;;;17.46
60731;BMP280;46580;52.114;11.674;2023-09-08T00:26:17;-19714.53;;;17.41
60731;BMP280;46580;52.114;11.674;2023-09-08T00:28:43;-19712.56;;;17.34
60731;BMP280;46580;52.114;11.674;2023-09-08T00:31:08;-19710.69;;;17.28
60731;BMP280;46580;52.114;11.674;2023-09-08T00:33:33;-19712.25;;;17.33
60731;BMP280;46580;52.114;11.674;2023-09-08T00:35:59;-19708.84;;;17.21
60731;BMP280;46580;52.114;11.674;2023-09-08T00:38:24;-19711.56;;;17.31
60731;BMP280;46580;52.114;11.674;2023-09-08T00:40:49;-19712.13;;;17.32
60731;BMP280;46580;52.114;11.674;2023-09-08T00:43:16;-19713.53;;;17.37
60731;BMP280;46580;52.114;11.674;2023-09-08T00:45:43;-19711.97;;;17.32
60731;BMP280;46580;52.114;11.674;2023-09-08T00:48:09;-19711.13;;;17.29
60731;BMP280;46580;52.114;11.674;2023-09-08T00:50:36;-19711.56;;;17.31
60731;BMP280;46580;52.114;11.674;2023-09-08T00:53:02;-19711.13;;;17.29
60731;BMP280;46580;52.114;11.674;2023-09-08T00:55:29;-19709.00;;;17.22
60731;BMP280;46580;52.114;11.674;2023-09-08T00:57:54;-19706.56;;;17.13
60731;BMP280;46580;52.114;11.674;2023-09-08T01:00:20;-19705.16;;;17.09
60731;BMP280;46580;52.114;11.674;2023-09-08T01:02:45;-19703.72;;;17.04
60731;BMP280;46580;52.114;11.674;2023-09-08T01:05:11;-19699.88;;;16.91
60731;BMP280;46580;52.114;11.674;2023-09-08T01:07:38;-19701.00;;;16.94
60731;BMP280;46580;52.114;11.674;2023-09-08T01:10:04;-19700.59;;;16.93
60731;BMP280;46580;52.114;11.674;2023-09-08T01:12:31;-19697.88;;;16.84
60731;BMP280;46580;52.114;11.674;2023-09-08T01:14:58;-19698.59;;;16.86
60731;BMP280;46580;52.114;11.674;2023-09-08T01:17:23;-19698.03;;;16.84
60731;BMP280;46580;52.114;11.674;2023-09-08T01:19:51;-19697.44;;;16.82
60731;BMP280;46580;52.114;11.674;2023-09-08T01:25:12;-19694.59;;;16.73
60731;BMP280;46580;52.114;11.674;2023-09-08T01:27:52;-19692.75;;;16.66
60731;BMP280;46580;52.114;11.674;2023-09-08T01:30:18;-19691.59;;;16.62
60731;BMP280;46580;52.114;11.674;2023-09-08T01:32:45;-19694.59;;;16.73
60731;BMP280;46580;52.114;11.674;2023-09-08T01:35:11;-19693.47;;;16.69
60731;BMP280;46580;52.114;11.674;2023-09-08T01:37:39;-19691.31;;;16.61
60731;BMP280;46580;52.114;11.674;2023-09-08T01:40:05;-19693.75;;;16.70
60731;BMP280;46580;52.114;11.674;2023-09-08T01:42:31;-19695.03;;;16.74
60731;BMP280;46580;52.114;11.674;2023-09-08T01:44:56;-19692.31;;;16.65
60731;BMP280;46580;52.114;11.674;2023-09-08T01:47:22;-19693.47;;;16.69
60731;BMP280;46580;52.114;11.674;2023-09-08T01:49:47;-19691.91;;;16.63
60731;BMP280;46580;52.114;11.674;2023-09-08T01:52:12;-19693.19;;;16.68
60731;BMP280;46580;52.114;11.674;2023-09-08T01:54:38;-19692.59;;;16.66
60731;BMP280;46580;52.114;11.674;2023-09-08T01:57:03;-19691.75;;;16.63
60731;BMP280;46580;52.114;11.674;2023-09-08T01:59:29;-19693.47;;;16.69
60731;BMP280;46580;52.114;11.674;2023-09-08T02:01:54;-19688.19;;;16.51
60731;BMP280;46580;52.114;11.674;2023-09-08T02:04:19;-19686.75;;;16.46
60731;BMP280;46580;52.114;11.674;2023-09-08T02:06:45;-19685.78;;;16.42
60731;BMP280;46580;52.114;11.674;2023-09-08T02:09:15;-19684.63;;;16.38
60731;BMP280;46580;52.114;11.674;2023-09-08T02:11:40;-19682.63;;;16.32
60731;BMP280;46580;52.114;11.674;2023-09-08T02:14:07;-19682.50;;;16.31
60731;BMP280;46580;52.114;11.674;2023-09-08T02:16:34;-19681.50;;;16.28
60731;BMP280;46580;52.114;11.674;2023-09-08T02:18:59;-19679.94;;;16.22
60731;BMP280;46580;52.114;11.674;2023-09-08T02:21:24;-19678.63;;;16.18
60731;BMP280;46580;52.114;11.674;2023-09-08T02:23:50;-19677.50;;;16.14
60731;BMP280;46580;52.114;11.674;2023-09-08T02:26:15;-19681.91;;;16.29
60731;BMP280;46580;52.114;11.674;2023-09-08T02:28:40;-19678.94;;;16.19
60731;BMP280;46580;52.114;11.674;2023-09-08T02:31:06;-19676.38;;;16.10
60731;BMP280;46580;52.114;11.674;2023-09-08T02:33:31;-19674.09;;;16.02
60731;BMP280;46580;52.114;11.674;2023-09-08T02:36:03;-19670.94;;;15.92
60731;BMP280;46580;52.114;11.674;2023-09-08T02:38:29;-19671.22;;;15.93
60731;BMP280;46580;52.114;11.674;2023-09-08T02:40:54;-19672.09;;;15.96
60731;BMP280;46580;52.114;11.674;2023-09-08T02:43:19;-19669.50;;;15.87
60731;BMP280;46580;52.114;11.674;2023-09-08T02:45:46;-19668.38;;;15.83
60731;BMP280;46580;52.114;11.674;2023-09-08T02:48:12;-19668.38;;;15.83
60731;BMP280;46580;52.114;11.674;2023-09-08T02:50:37;-19668.81;;;15.84
60731;BMP280;46580;52.114;11.674;2023-09-08T02:53:03;-19666.66;;;15.77
60731;BMP280;46580;52.114;11.674;2023-09-08T02:55:28;-19667.81;;;15.81
60731;BMP280;46580;52.114;11.674;2023-09-08T02:57:54;-19665.53;;;15.73
60731;BMP280;46580;52.114;11.674;2023-09-08T03:00:20;-19663.38;;;15.66
60731;BMP280;46580;52.114;11.674;2023-09-08T03:02:45;-19661.81;;;15.61
60731;BMP280;46580;52.114;11.674;2023-09-08T03:05:11;-19662.97;;;15.64
60731;BMP280;46580;52.114;11.674;2023-09-08T03:07:36;-19662.25;;;15.62
60731;BMP280;46580;52.114;11.674;2023-09-08T03:10:03;-19661.25;;;15.59
60731;BMP280;46580;52.114;11.674;2023-09-08T03:12:30;-19659.53;;;15.53
60731;BMP280;46580;52.114;11.674;2023-09-08T03:14:55;-19659.25;;;15.52
60731;BMP280;46580;52.114;11.674;2023-09-08T03:17:20;-19658.41;;;15.49
60731;BMP280;46580;52.114;11.674;2023-09-08T03:19:46;-19657.81;;;15.47
60731;BMP280;46580;52.114;11.674;2023-09-08T03:22:11;-19656.81;;;15.43
60731;BMP280;46580;52.114;11.674;2023-09-08T03:24:37;-19655.41;;;15.39
60731;BMP280;46580;52.114;11.674;2023-09-08T03:27:02;-19656.13;;;15.41
60731;BMP280;46580;52.114;11.674;2023-09-08T03:29:28;-19659.53;;;15.53
60731;BMP280;46580;52.114;11.674;2023-09-08T03:31:53;-19662.97;;;15.64
60731;BMP280;46580;52.114;11.674;2023-09-08T03:34:18;-19663.53;;;15.66
60731;BMP280;46580;52.114;11.674;2023-09-08T03:36:46;-19663.25;;;15.65
60731;BMP280;46580;52.114;11.674;2023-09-08T03:39:12;-19659.25;;;15.52
60731;BMP280;46580;52.114;11.674;2023-09-08T03:41:37;-19654.97;;;15.37
60731;BMP280;46580;52.114;11.674;2023-09-08T03:44:03;-19652.97;;;15.30
60731;BMP280;46580;52.114;11.674;2023-09-08T03:46:28;-19651.41;;;15.25
60731;BMP280;46580;52.114;11.674;2023-09-08T03:48:54;-19649.13;;;15.17
60731;BMP280;46580;52.114;11.674;2023-09-08T03:51:24;-19649.56;;;15.19
60731;BMP280;46580;52.114;11.674;2023-09-08T03:53:49;-19648.69;;;15.16
60731;BMP280;46580;52.114;11.674;2023-09-08T03:56:14;-19649.13;;;15.17
60731;BMP280;46580;52.114;11.674;2023-09-08T03:58:40;-19648.97;;;15.17
60731;BMP280;46580;52.114;11.674;2023-09-08T04:01:05;-19647.28;;;15.11
60731;BMP280;46580;52.114;11.674;2023-09-08T04:03:31;-19644.44;;;15.01
60731;BMP280;46580;52.114;11.674;2023-09-08T04:05:56;-19643.84;;;14.99
60731;BMP280;46580;52.114;11.674;2023-09-08T04:08:21;-19641.13;;;14.90
60731;BMP280;46580;52.114;11.674;2023-09-08T04:10:47;-19643.00;;;14.96
60731;BMP280;46580;52.114;11.674;2023-09-08T04:13:12;-19641.28;;;14.90
60731;BMP280;46580;52.114;11.674;2023-09-08T04:15:37;-19642.56;;;14.95
60731;BMP280;46580;52.114;11.674;2023-09-08T04:18:03;-19640.00;;;14.86
60731;BMP280;46580;52.114;11.674;2023-09-08T04:20:28;-19639.28;;;14.84
60731;BMP280;46580;52.114;11.674;2023-09-08T04:22:54;-19640.44;;;14.88
60731;BMP280;46580;52.114;11.674;2023-09-08T04:25:19;-19639.41;;;14.84
60731;BMP280;46580;52.114;11.674;2023-09-08T04:27:44;-19639.00;;;14.83
60731;BMP280;46580;52.114;11.674;2023-09-08T04:30:10;-19637.13;;;14.76
60731;BMP280;46580;52.114;11.674;2023-09-08T04:32:36;-19637.28;;;14.77
60731;BMP280;46580;52.114;11.674;2023-09-08T04:35:03;-19637.28;;;14.77
60731;BMP280;46580;52.114;11.674;2023-09-08T04:37:28;-19639.28;;;14.84
60731;BMP280;46580;52.114;11.674;2023-09-08T04:39:55;-19639.00;;;14.83
60731;BMP280;46580;52.114;11.674;2023-09-08T04:42:21;-19638.44;;;14.81
60731;BMP280;46580;52.114;11.674;2023-09-08T04:44:46;-19637.84;;;14.79
60731;BMP280;46580;52.114;11.674;2023-09-08T04:47:12;-19639.13;;;14.83
60731;BMP280;46580;52.114;11.674;2023-09-08T04:49:37;-19637.84;;;14.79
60731;BMP280;46580;52.114;11.674;2023-09-08T04:52:03;-19637.28;;;14.77
60731;BMP280;46580;52.114;11.674;2023-09-08T04:54:28;-19639.00;;;14.83
60731;BMP280;46580;52.114;11.674;2023-09-08T04:56:54;-19638.72;;;14.82
60731;BMP280;46580;52.114;11.674;2023-09-08T04:59:20;-19640.28;;;14.87
60731;BMP280;46580;52.114;11.674;2023-09-08T05:01:46;-19642.56;;;14.95
60731;BMP280;46580;52.114;11.674;2023-09-08T05:04:11;-19641.56;;;14.91
60731;BMP280;46580;52.114;11.674;2023-09-08T05:06:36;-19644.72;;;15.02
60731;BMP280;46580;52.114;11.674;2023-09-08T05:09:02;-19646.41;;;15.08
60731;BMP280;46580;52.114;11.674;2023-09-08T05:11:28;-19648.97;;;15.17
60731;BMP280;46580;52.114;11.674;2023-09-08T05:13:53;-19648.28;;;15.14
60731;BMP280;46580;52.114;11.674;2023-09-08T05:16:19;-19650.41;;;15.22
60731;BMP280;46580;52.114;11.674;2023-09-08T05:18:51;-19649.84;;;15.20
60731;BMP280;46580;52.114;11.674;2023-09-08T05:21:16;-19649.56;;;15.19
60731;BMP280;46580;52.114;11.674;2023-09-08T05:23:42;-19650.56;;;15.22
60731;BMP280;46580;52.114;11.674;2023-09-08T05:26:07;-19650.28;;;15.21
60731;BMP280;46580;52.114;11.674;2023-09-08T05:28:32;-19651.69;;;15.26
60731;BMP280;46580;52.114;11.674;2023-09-08T05:30:58;-19652.41;;;15.28
60731;BMP280;46580;52.114;11.674;2023-09-08T05:33:23;-19655.53;;;15.39
60731;BMP280;46580;52.114;11.674;2023-09-08T05:35:48;-19661.53;;;15.60
60731;BMP280;46580;52.114;11.674;2023-09-08T05:38:14;-19667.53;;;15.80
60731;BMP280;46580;52.114;11.674;2023-09-08T05:40:40;-19670.38;;;15.90
60731;BMP280;46580;52.114;11.674;2023-09-08T05:43:05;-19670.94;;;15.92
60731;BMP280;46580;52.114;11.674;2023-09-08T05:45:33;-19672.66;;;15.98
60731;BMP280;46580;52.114;11.674;2023-09-08T05:47:59;-19675.50;;;16.07
60731;BMP280;46580;52.114;11.674;2023-09-08T05:50:25;-19674.09;;;16.02
60731;BMP280;46580;52.114;11.674;2023-09-08T05:52:51;-19675.66;;;16.08
60731;BMP280;46580;52.114;11.674;2023-09-08T05:55:16;-19677.78;;;16.15
60731;BMP280;46580;52.114;11.674;2023-09-08T05:57:42;-19681.06;;;16.26
60731;BMP280;46580;52.114;11.674;2023-09-08T06:00:08;-19684.34;;;16.37
60731;BMP280;46580;52.114;11.674;2023-09-08T06:02:34;-19691.47;;;16.62
60731;BMP280;46580;52.114;11.674;2023-09-08T06:04:59;-19692.59;;;16.66
60731;BMP280;46580;52.114;11.674;2023-09-08T06:07:24;-19699.44;;;16.89
60731;BMP280;46580;52.114;11.674;2023-09-08T06:09:50;-19700.72;;;16.93
60731;BMP280;46580;52.114;11.674;2023-09-08T06:12:15;-19698.03;;;16.84
60731;BMP280;46580;52.114;11.674;2023-09-08T06:14:40;-19701.31;;;16.95
60731;BMP280;46580;52.114;11.674;2023-09-08T06:17:06;-19700.59;;;16.93
60731;BMP280;46580;52.114;11.674;2023-09-08T06:19:31;-19703.16;;;17.02
60731;BMP280;46580;52.114;11.674;2023-09-08T06:21:56;-19706.00;;;17.12
60731;BMP280;46580;52.114;11.674;2023-09-08T06:24:22;-19706.56;;;17.13
60731;BMP280;46580;52.114;11.674;2023-09-08T06:26:47;-19705.44;;;17.10
60731;BMP280;46580;52.114;11.674;2023-09-08T06:29:14;-19709.28;;;17.23
60731;BMP280;46580;52.114;11.674;2023-09-08T06:31:40;-19712.69;;;17.34
60731;BMP280;46580;52.114;11.674;2023-09-08T06:34:05;-19717.38;;;17.50
60731;BMP280;46580;52.114;11.674;2023-09-08T06:36:30;-19720.53;;;17.61
60731;BMP280;46580;52.114;11.674;2023-09-08T06:38:56;-19722.09;;;17.67
60731;BMP280;46580;52.114;11.674;2023-09-08T06:41:21;-19722.50;;;17.68
60731;BMP280;46580;52.114;11.674;2023-09-08T06:43:49;-19724.94;;;17.76
60731;BMP280;46580;52.114;11.674;2023-09-08T06:46:14;-19728.06;;;17.87
60731;BMP280;46580;52.114;11.674;2023-09-08T06:48:40;-19732.47;;;18.02
60731;BMP280;46580;52.114;11.674;2023-09-08T06:51:05;-19734.34;;;18.08
60731;BMP280;46580;52.114;11.674;2023-09-08T06:53:30;-19735.34;;;18.12
60731;BMP280;46580;52.114;11.674;2023-09-08T06:55:56;-19738.16;;;18.22
60731;BMP280;46580;52.114;11.674;2023-09-08T06:58:21;-19741.03;;;18.31
60731;BMP280;46580;52.114;11.674;2023-09-08T07:00:46;-19744.28;;;18.42
60731;BMP280;46580;52.114;11.674;2023-09-08T07:03:12;-19746.72;;;18.51
60731;BMP280;46580;52.114;11.674;2023-09-08T07:05:39;-19748.13;;;18.56
60731;BMP280;46580;52.114;11.674;2023-09-08T07:08:05;-19750.97;;;18.65
60731;BMP280;46580;52.114;11.674;2023-09-08T07:10:31;-19755.53;;;18.81
60731;BMP280;46580;52.114;11.674;2023-09-08T07:12:57;-19756.66;;;18.85
60731;BMP280;46580;52.114;11.674;2023-09-08T07:15:22;-19762.34;;;19.04
60731;BMP280;46580;52.114;11.674;2023-09-08T07:17:47;-19766.78;;;19.19
60731;BMP280;46580;52.114;11.674;2023-09-08T07:20:13;-19769.19;;;19.28
60731;BMP280;46580;52.114;11.674;2023-09-08T07:22:38;-19772.59;;;19.39
60731;BMP280;46580;52.114;11.674;2023-09-08T07:25:04;-19774.88;;;19.47
60731;BMP280;46580;52.114;11.674;2023-09-08T07:27:30;-19780.84;;;19.68
60731;BMP280;46580;52.114;11.674;2023-09-08T07:29:55;-19781.28;;;19.69
60731;BMP280;46580;52.114;11.674;2023-09-08T07:32:21;-19785.38;;;19.83
60731;BMP280;46580;52.114;11.674;2023-09-08T07:34:47;-19789.94;;;19.99
60731;BMP280;46580;52.114;11.674;2023-09-08T07:37:20;-19791.78;;;20.05
60731;BMP280;46580;52.114;11.674;2023-09-08T07:39:46;-19796.19;;;20.20
60731;BMP280;46580;52.114;11.674;2023-09-08T07:42:11;-19798.75;;;20.29
60731;BMP280;46580;52.114;11.674;2023-09-08T07:44:37;-19806.41;;;20.55
60731;BMP280;46580;52.114;11.674;2023-09-08T07:47:02;-19810.25;;;20.68
60731;BMP280;46580;52.114;11.674;2023-09-08T07:49:27;-19810.69;;;20.70
60731;BMP280;46580;52.114;11.674;2023-09-08T07:51:53;-19810.97;;;20.71
60731;BMP280;46580;52.114;11.674;2023-09-08T07:54:18;-19816.34;;;20.89
60731;BMP280;46580;52.114;11.674;2023-09-08T07:56:43;-19823.19;;;21.13
60731;BMP280;46580;52.114;11.674;2023-09-08T07:59:09;-19828.56;;;21.31
60731;BMP280;46580;52.114;11.674;2023-09-08T08:01:34;-19828.28;;;21.30
60731;BMP280;46580;52.114;11.674;2023-09-08T08:04:00;-19829.28;;;21.34
60731;BMP280;46580;52.114;11.674;2023-09-08T08:06:28;-19837.09;;;21.61
60731;BMP280;46580;52.114;11.674;2023-09-08T08:08:53;-19843.63;;;21.83
60731;BMP280;46580;52.114;11.674;2023-09-08T08:11:19;-19847.16;;;21.95
60731;BMP280;46580;52.114;11.674;2023-09-08T08:13:45;-19848.16;;;21.98
60731;BMP280;46580;52.114;11.674;2023-09-08T08:16:11;-19850.44;;;22.06
60731;BMP280;46580;52.114;11.674;2023-09-08T08:18:37;-19855.25;;;22.23
60731;BMP280;46580;52.114;11.674;2023-09-08T08:21:02;-19858.38;;;22.34
60731;BMP280;46580;52.114;11.674;2023-09-08T08:23:29;-19862.91;;;22.49
60731;BMP280;46580;52.114;11.674;2023-09-08T08:25:55;-19862.63;;;22.48
60731;BMP280;46580;52.114;11.674;2023-09-08T08:28:20;-19869.00;;;22.70
60731;BMP280;46580;52.114;11.674;2023-09-08T08:30:46;-19873.97;;;22.87
60731;BMP280;46580;52.114;11.674;2023-09-08T08:33:13;-19877.38;;;22.99
60731;BMP280;46580;52.114;11.674;2023-09-08T08:35:39;-19881.34;;;23.12
60731;BMP280;46580;52.114;11.674;2023-09-08T08:38:04;-19884.75;;;23.24
60731;BMP280;46580;52.114;11.674;2023-09-08T08:40:30;-19888.16;;;23.36
60731;BMP280;46580;52.114;11.674;2023-09-08T08:42:56;-19889.00;;;23.39
60731;BMP280;46580;52.114;11.674;2023-09-08T08:45:23;-19892.53;;;23.51
60731;BMP280;46580;52.114;11.674;2023-09-08T08:47:50;-19894.94;;;23.59
60731;BMP280;46580;52.114;11.674;2023-09-08T08:50:17;-19895.78;;;23.62
60731;BMP280;46580;52.114;11.674;2023-09-08T08:52:43;-19897.34;;;23.67
60731;BMP280;46580;52.114;11.674;2023-09-08T08:55:08;-19898.34;;;23.71
60731;BMP280;46580;52.114;11.674;2023-09-08T08:57:37;-19906.72;;;24.00
60731;BMP280;46580;52.114;11.674;2023-09-08T09:00:04;-19907.97;;;24.04
60731;BMP280;46580;52.114;11.674;2023-09-08T09:02:36;-19910.66;;;24.13
60731;BMP280;46580;52.114;11.674;2023-09-08T09:05:04;-19912.78;;;24.21
60731;BMP280;46580;52.114;11.674;2023-09-08T09:07:29;-19914.78;;;24.27
60731;BMP280;46580;52.114;11.674;2023-09-08T09:09:55;-19917.31;;;24.36
60731;BMP280;46580;52.114;11.674;2023-09-08T09:12:21;-19923.56;;;24.58
60731;BMP280;46580;52.114;11.674;2023-09-08T09:14:47;-19925.53;;;24.64
60731;BMP280;46580;52.114;11.674;2023-09-08T09:17:14;-19928.09;;;24.73
60731;BMP280;46580;52.114;11.674;2023-09-08T09:19:39;-19931.91;;;24.86
60731;BMP280;46580;52.114;11.674;2023-09-08T09:22:05;-19890.75;;;24.92
60731;BMP280;46580;52.114;11.674;2023-09-08T09:24:38;-19496.84;;;24.99
60731;BMP280;46580;52.114;11.674;2023-09-08T09:27:09;-18926.03;;;25.06
60731;BMP280;46580;52.114;11.674;2023-09-08T09:29:44;-17375.53;;;25.24
60731;BMP280;46580;52.114;11.674;2023-09-08T09:32:10;-16558.84;;;25.31
60731;BMP280;46580;52.114;11.674;2023-09-08T09:34:47;-14302.69;;;25.49
60731;BMP280;46580;52.114;11.674;2023-09-08T09:37:12;-13663.69;;;25.54
60731;BMP280;46580;52.114;11.674;2023-09-08T09:39:38;-11671.13;;;25.68
60731;BMP280;46580;52.114;11.674;2023-09-08T09:42:03;-10813.03;;;25.72
60731;BMP280;46580;52.114;11.674;2023-09-08T09:44:29;-8302.63;;;25.88
60731;BMP280;46580;52.114;11.674;2023-09-08T09:46:55;-7653.53;;;25.92
60731;BMP280;46580;52.114;11.674;2023-09-08T09:49:20;-8302.63;;;25.88
60731;BMP280;46580;52.114;11.674;2023-09-08T09:51:48;-8951.22;;;25.82
60731;BMP280;46580;52.114;11.674;2023-09-08T09:54:14;-5379.91;;;26.08
60731;BMP280;46580;52.114;11.674;2023-09-08T09:56:41;-4404.53;;;26.14
60731;BMP280;46580;52.114;11.674;2023-09-08T09:59:10;-2777.69;;;26.26
60731;BMP280;46580;52.114;11.674;2023-09-08T10:01:38;-1149.28;;;26.37
60731;BMP280;46580;52.114;11.674;2023-09-08T10:04:04;-171.50;;;26.42
60731;BMP280;46580;52.114;11.674;2023-09-08T10:06:35;806.91;;;26.51
60731;BMP280;46580;52.114;11.674;2023-09-08T10:09:02;-497.44;;;26.42
60731;BMP280;46580;52.114;11.674;2023-09-08T10:11:34;-497.44;;;26.43
60731;BMP280;46580;52.114;11.674;2023-09-08T10:14:00;480.75;;;26.49
60731;BMP280;46580;52.114;11.674;2023-09-08T10:16:32;3091.84;;;26.65
60731;BMP280;46580;52.114;11.674;2023-09-08T10:19:00;4072.16;;;26.73
60731;BMP280;46580;52.114;11.674;2023-09-08T10:21:26;5380.38;;;26.85
60731;BMP280;46580;52.114;11.674;2023-09-08T10:24:21;6362.00;;;26.92
60731;BMP280;46580;52.114;11.674;2023-09-08T10:26:54;5707.44;;;26.86
60731;BMP280;46580;52.114;11.674;2023-09-08T10:29:22;6689.03;;;26.92
60731;BMP280;46580;52.114;11.674;2023-09-08T10:31:48;8654.38;;;27.06
60731;BMP280;46580;52.114;11.674;2023-09-08T10:34:14;8982.09;;;27.08
60731;BMP280;46580;52.114;11.674;2023-09-08T10:36:40;9966.09;;;27.17
60731;BMP280;46580;52.114;11.674;2023-09-08T10:39:35;11935.09;;;27.30
60731;BMP280;46580;52.114;11.674;2023-09-08T10:45:13;13249.84;;;27.42
60731;BMP280;46580;52.114;11.674;2023-09-08T10:47:41;13578.19;;;27.43
60731;BMP280;46580;52.114;11.674;2023-09-08T10:50:19;13578.91;;;27.46
60731;BMP280;46580;52.114;11.674;2023-09-08T10:53:15;16210.16;;;27.62
60731;BMP280;46580;52.114;11.674;2023-09-08T10:55:46;17527.41;;;27.71
60731;BMP280;46580;52.114;11.674;2023-09-08T10:58:21;17857.88;;;27.77
60731;BMP280;46580;52.114;11.674;2023-09-08T11:00:53;18516.88;;;27.80
60731;BMP280;46580;52.114;11.674;2023-09-08T11:03:41;19506.81;;;27.89
60731;BMP280;46580;52.114;11.674;2023-09-08T11:06:11;18847.44;;;27.85
60731;BMP280;46580;52.114;11.674;2023-09-08T11:08:42;19176.94;;;27.87
60731;BMP280;46580;52.114;11.674;2023-09-08T11:11:10;21157.41;;;28.02
60731;BMP280;46580;52.114;11.674;2023-09-08T11:13:39;21488.06;;;28.05
60731;BMP280;46580;52.114;11.674;2023-09-08T11:16:07;24133.13;;;28.26
60731;BMP280;46580;52.114;11.674;2023-09-08T11:18:33;25788.38;;;28.38
60731;BMP280;46580;52.114;11.674;2023-09-08T11:21:01;27114.97;;;28.51
60731;BMP280;46580;52.114;11.674;2023-09-08T11:23:29;27446.00;;;28.53
60731;BMP280;46580;52.114;11.674;2023-09-08T11:25:56;28441.28;;;28.61
60731;BMP280;46580;52.114;11.674;2023-09-08T11:28:22;30101.69;;;28.75
60731;BMP280;46580;52.114;11.674;2023-09-08T11:30:48;30101.44;;;28.74
60731;BMP280;46580;52.114;11.674;2023-09-08T11:33:19;31098.66;;;28.83
60731;BMP280;46580;52.114;11.674;2023-09-08T11:35:49;31762.78;;;28.87
60731;BMP280;46580;52.114;11.674;2023-09-08T11:38:14;34425.31;;;29.09
60731;BMP280;46580;52.114;11.674;2023-09-08T11:40:40;33094.44;;;29.00
60731;BMP280;46580;52.114;11.674;2023-09-08T11:43:06;34759.97;;;29.14
60731;BMP280;46580;52.114;11.674;2023-09-08T11:45:35;34093.56;;;29.09
60731;BMP280;46580;52.114;11.674;2023-09-08T11:48:01;36426.97;;;29.29
60731;BMP280;46580;52.114;11.674;2023-09-08T11:50:26;38429.16;;;29.45
60731;BMP280;46580;52.114;11.674;2023-09-08T11:52:53;38427.88;;;29.43
60731;BMP280;46580;52.114;11.674;2023-09-08T11:55:20;39765.91;;;29.56
60731;BMP280;46580;52.114;11.674;2023-09-08T11:57:52;39764.63;;;29.54
60731;BMP280;46580;52.114;11.674;2023-09-08T12:00:20;40099.63;;;29.58
60731;BMP280;46580;52.114;11.674;2023-09-08T12:02:48;42109.03;;;29.78
60731;BMP280;46580;52.114;11.674;2023-09-08T12:07:45;40770.22;;;29.67
60731;BMP280;46580;52.114;11.674;2023-09-08T12:10:11;43783.09;;;29.91
60731;BMP280;46580;52.114;11.674;2023-09-08T12:12:49;45125.16;;;30.04
60731;BMP280;46580;52.114;11.674;2023-09-08T12:15:35;46131.53;;;30.12
60731;BMP280;46580;52.114;11.674;2023-09-08T12:18:08;46804.19;;;30.20
60731;BMP280;46580;52.114;11.674;2023-09-08T12:20:35;42777.81;;;29.83
60731;BMP280;46580;52.114;11.674;2023-09-08T12:23:02;46131.91;;;30.13
60731;BMP280;46580;52.114;11.674;2023-09-08T12:25:28;48148.13;;;30.31
60731;BMP280;46580;52.114;11.674;2023-09-08T12:27:57;48147.72;;;30.31
60731;BMP280;46580;52.114;11.674;2023-09-08T12:30:23;49829.66;;;30.46
60731;BMP280;46580;52.114;11.674;2023-09-08T12:32:56;51514.63;;;30.62
60731;BMP280;46580;52.114;11.674;2023-09-08T12:35:22;49495.22;;;30.45
60731;BMP280;46580;52.114;11.674;2023-09-08T12:37:53;52863.44;;;30.75
60731;BMP280;46580;52.114;11.674;2023-09-08T12:40:19;53201.88;;;30.80
60731;BMP280;46580;52.114;11.674;2023-09-08T12:42:44;55230.06;;;31.01
60731;BMP280;46580;52.114;11.674;2023-09-08T12:45:10;54215.19;;;30.90
60731;BMP280;46580;52.114;11.674;2023-09-08T12:47:35;55568.25;;;31.04
60731;BMP280;46580;52.114;11.674;2023-09-08T12:50:03;56580.44;;;31.12
60731;BMP280;46580;52.114;11.674;2023-09-08T12:52:29;56922.06;;;31.18
60731;BMP280;46580;52.114;11.674;2023-09-08T12:54:54;56919.31;;;31.16
60731;BMP280;46580;52.114;11.674;2023-09-08T12:57:20;56242.97;;;31.09
60731;BMP280;46580;52.114;11.674;2023-09-08T12:59:45;56919.31;;;31.16
60731;BMP280;46580;52.114;11.674;2023-09-08T13:02:10;58274.34;;;31.30
60731;BMP280;46580;52.114;11.674;2023-09-08T13:04:37;58613.19;;;31.33
60731;BMP280;46580;52.114;11.674;2023-09-08T13:07:03;59631.13;;;31.44
60731;BMP280;46580;52.114;11.674;2023-09-08T13:09:28;58948.81;;;31.33
60731;BMP280;46580;52.114;11.674;2023-09-08T13:11:54;59290.16;;;31.39
60731;BMP280;46580;52.114;11.674;2023-09-08T13:14:19;58950.69;;;31.35
60731;BMP280;46580;52.114;11.674;2023-09-08T13:16:44;57935.59;;;31.26
60731;BMP280;46580;52.114;11.674;2023-09-08T13:19:10;59289.66;;;31.38
60731;BMP280;46580;52.114;11.674;2023-09-08T13:21:35;61669.63;;;31.67
60731;BMP280;46580;52.114;11.674;2023-09-08T13:24:05;62008.28;;;31.70
60731;BMP280;46580;52.114;11.674;2023-09-08T13:26:31;60988.69;;;31.58
60731;BMP280;46580;52.114;11.674;2023-09-08T13:28:56;60650.75;;;31.56
60731;BMP280;46580;52.114;11.674;2023-09-08T13:31:22;60647.84;;;31.54
60731;BMP280;46580;52.114;11.674;2023-09-08T13:33:47;62686.72;;;31.75
60731;BMP280;46580;52.114;11.674;2023-09-08T13:36:15;63369.56;;;31.85
60731;BMP280;46580;52.114;11.674;2023-09-08T13:38:41;64050.72;;;31.93
60731;BMP280;46580;52.114;11.674;2023-09-08T13:41:06;66098.22;;;32.18
60731;BMP280;46580;52.114;11.674;2023-09-08T13:43:32;64391.91;;;31.97
60731;BMP280;46580;52.114;11.674;2023-09-08T13:45:57;63368.53;;;31.84
60731;BMP280;46580;52.114;11.674;2023-09-08T13:48:22;61670.63;;;31.68
60731;BMP280;46580;52.114;11.674;2023-09-08T13:50:48;60310.47;;;31.52
60731;BMP280;46580;52.114;11.674;2023-09-08T13:53:13;59968.84;;;31.46
60731;BMP280;46580;52.114;11.674;2023-09-08T13:55:39;60989.66;;;31.59